createdAt,value
2023-07-03T00:00:55.037Z,7.03
2023-07-03T00:01:55.165Z,6.92
2023-07-03T00:02:55.250Z,7.31
2023-07-03T00:03:55.267Z,6.66
2023-07-03T00:04:55.468Z,6.86
2023-07-03T00:05:55.373Z,6.49
2023-07-03T00:06:55.410Z,6.41
2023-07-03T00:07:55.477Z,6.37
2023-07-03T00:08:55.512Z,6.12
2023-07-03T00:09:55.585Z,6.60
2023-07-03T00:10:55.640Z,6.25
2023-07-03T00:11:55.698Z,6.18
2023-07-03T00:12:55.751Z,6.31
2023-07-03T00:13:55.858Z,7.13
2023-07-03T00:14:55.891Z,6.51
2023-07-03T00:15:55.939Z,6.63
2023-07-03T00:16:56.061Z,6.89
2023-07-03T00:17:56.146Z,6.41
2023-07-03T00:18:56.133Z,6.76
2023-07-03T00:19:56.166Z,6.16
2023-07-03T00:20:56.204Z,7.05
2023-07-03T00:21:56.213Z,6.95
2023-07-03T00:22:56.294Z,5.96
2023-07-03T00:23:56.401Z,6.58
2023-07-03T00:24:56.359Z,7.02
2023-07-03T00:25:56.365Z,6.26
2023-07-03T00:26:56.342Z,6.22
2023-07-03T00:27:56.345Z,6.93
2023-07-03T00:28:56.379Z,7.18
2023-07-03T00:29:56.334Z,6.79
2023-07-03T00:30:56.325Z,6.33
2023-07-03T00:31:56.442Z,6.55
2023-07-03T00:32:56.357Z,7.74
2023-07-03T00:33:56.318Z,6.81
2023-07-03T00:34:56.410Z,6.62
2023-07-03T00:35:56.418Z,6.18
2023-07-03T00:36:56.429Z,7.07
2023-07-03T00:37:56.426Z,7.97
2023-07-03T00:38:56.456Z,6.17
2023-07-03T00:39:56.505Z,6.45
2023-07-03T00:40:56.511Z,7.08
2023-07-03T00:41:56.499Z,7.07
2023-07-03T00:42:56.522Z,6.81
2023-07-03T00:43:56.529Z,6.28
2023-07-03T00:44:56.558Z,6.63
2023-07-03T00:45:56.601Z,6.36
2023-07-03T00:46:56.595Z,6.95
2023-07-03T00:47:56.648Z,5.99
2023-07-03T00:48:56.661Z,7.11
2023-07-03T00:49:56.631Z,6.96
2023-07-03T00:50:56.678Z,7.12
2023-07-03T00:51:56.721Z,7.22
2023-07-03T00:52:56.730Z,6.85
2023-07-03T00:53:56.746Z,6.41
2023-07-03T00:54:56.813Z,7.11
2023-07-03T00:55:56.821Z,6.99
2023-07-03T00:56:56.852Z,7.78
2023-07-03T00:57:56.860Z,7.02
2023-07-03T00:58:56.908Z,8.32
2023-07-03T00:59:56.904Z,7.07
2023-07-03T01:00:56.994Z,7.11
2023-07-03T01:01:57.114Z,6.94
2023-07-03T01:02:57.081Z,6.38
2023-07-03T01:03:57.062Z,7.23
2023-07-03T01:04:57.277Z,7.16
2023-07-03T01:05:57.317Z,6.26
2023-07-03T01:06:57.196Z,7.13
2023-07-03T01:07:57.258Z,6.48
2023-07-03T01:08:57.282Z,6.86
2023-07-03T01:09:57.316Z,6.42
2023-07-03T01:10:57.349Z,7.57
2023-07-03T01:11:57.415Z,7.14
2023-07-03T01:12:57.464Z,6.34
2023-07-03T01:13:57.480Z,7.34
2023-07-03T01:14:57.484Z,7.02
2023-07-03T01:15:57.573Z,7.18
2023-07-03T01:16:57.614Z,6.56
2023-07-03T01:17:57.712Z,7.02
2023-07-03T01:18:57.686Z,5.61
2023-07-03T01:19:57.696Z,6.96
2023-07-03T01:20:57.745Z,7.04
2023-07-03T01:21:57.772Z,5.96
2023-07-03T01:22:57.825Z,5.90
2023-07-03T01:23:57.881Z,7.71
2023-07-03T01:24:57.934Z,6.41
2023-07-03T01:25:57.983Z,6.86
2023-07-03T01:26:58.092Z,7.90
2023-07-03T01:27:58.101Z,6.71
2023-07-03T01:28:58.173Z,6.81
2023-07-03T01:29:58.217Z,6.67
2023-07-03T01:30:58.280Z,6.69
2023-07-03T01:31:58.419Z,6.33
2023-07-03T01:32:58.535Z,6.70
2023-07-03T01:33:58.451Z,5.80
2023-07-03T01:34:58.519Z,6.68
2023-07-03T01:35:58.577Z,6.05
2023-07-03T01:36:58.621Z,6.97
2023-07-03T01:37:58.665Z,7.03
2023-07-03T01:38:58.759Z,7.19
2023-07-03T01:39:58.784Z,6.16
2023-07-03T01:40:58.854Z,7.44
2023-07-03T01:41:58.937Z,6.20
2023-07-03T01:42:58.999Z,6.43
2023-07-03T01:43:59.052Z,6.98
2023-07-03T01:44:59.093Z,7.63
2023-07-03T01:45:59.134Z,5.90
2023-07-03T01:46:59.244Z,6.53
2023-07-03T01:47:59.269Z,6.61
2023-07-03T01:48:59.314Z,6.52
2023-07-03T01:49:59.361Z,6.76
2023-07-03T01:50:59.389Z,7.14
2023-07-03T01:51:59.450Z,6.47
2023-07-03T01:52:59.501Z,7.28
2023-07-03T01:53:59.564Z,7.16
2023-07-03T01:54:59.615Z,6.49
2023-07-03T01:55:59.708Z,6.49
2023-07-03T01:56:59.761Z,6.05
2023-07-03T01:57:59.878Z,6.41
2023-07-03T01:58:59.849Z,6.86
2023-07-03T01:59:59.927Z,6.29
2023-07-03T02:01:00.042Z,6.29
2023-07-03T02:02:00.060Z,6.98
2023-07-03T02:03:00.192Z,6.22
2023-07-03T02:04:00.123Z,6.17
2023-07-03T02:05:00.269Z,6.20
2023-07-03T02:06:00.256Z,6.02
2023-07-03T02:07:00.319Z,7.05
2023-07-03T02:08:00.330Z,6.32
2023-07-03T02:09:00.437Z,6.16
2023-07-03T02:10:00.493Z,5.77
2023-07-03T02:11:00.577Z,6.38
2023-07-03T02:12:00.627Z,6.29
2023-07-03T02:13:00.692Z,7.16
2023-07-03T02:14:00.724Z,6.57
2023-07-03T02:15:00.773Z,6.58
2023-07-03T02:16:00.858Z,7.29
2023-07-03T02:17:01.054Z,6.62
2023-07-03T02:18:00.996Z,7.48
2023-07-03T02:19:01.029Z,6.98
2023-07-03T02:20:01.100Z,6.95
2023-07-03T02:21:01.150Z,6.56
2023-07-03T02:22:01.240Z,7.74
2023-07-03T02:23:01.329Z,7.85
2023-07-03T02:24:01.305Z,7.66
2023-07-03T02:25:01.404Z,7.98
2023-07-03T02:26:01.488Z,7.30
2023-07-03T02:27:01.536Z,7.40
2023-07-03T02:28:01.553Z,6.65
2023-07-03T02:29:01.613Z,6.55
2023-07-03T02:30:01.693Z,7.28
2023-07-03T02:31:01.802Z,7.22
2023-07-03T02:32:01.802Z,7.09
2023-07-03T02:33:01.874Z,7.01
2023-07-03T02:34:01.882Z,7.29
2023-07-03T02:35:01.994Z,6.74
2023-07-03T02:36:01.986Z,7.28
2023-07-03T02:37:02.011Z,6.76
2023-07-03T02:38:02.065Z,7.55
2023-07-03T02:39:02.160Z,7.41
2023-07-03T02:40:02.181Z,7.01
2023-07-03T02:41:02.295Z,7.87
2023-07-03T02:42:02.305Z,6.70
2023-07-03T02:43:02.363Z,7.05
2023-07-03T02:44:02.394Z,6.87
2023-07-03T02:45:02.472Z,6.69
2023-07-03T02:46:02.527Z,6.87
2023-07-03T02:47:02.648Z,6.87
2023-07-03T02:48:02.712Z,6.05
2023-07-03T02:49:02.718Z,6.95
2023-07-03T02:50:02.880Z,6.67
2023-07-03T02:51:02.900Z,6.96
2023-07-03T02:52:02.877Z,6.80
2023-07-03T02:53:02.943Z,6.53
2023-07-03T02:54:03.021Z,6.47
2023-07-03T02:55:03.081Z,6.73
2023-07-03T02:56:03.161Z,6.33
2023-07-03T02:57:03.244Z,6.34
2023-07-03T02:58:03.277Z,6.88
2023-07-03T02:59:03.368Z,6.99
2023-07-03T03:00:03.391Z,7.48
2023-07-03T03:01:03.453Z,6.75
2023-07-03T03:02:03.509Z,6.88
2023-07-03T03:03:03.708Z,6.77
2023-07-03T03:04:03.638Z,6.94
2023-07-03T03:05:03.743Z,6.85
2023-07-03T03:06:03.754Z,6.87
2023-07-03T03:07:03.792Z,6.61
2023-07-03T03:08:03.877Z,6.33
2023-07-03T03:09:03.936Z,6.63
2023-07-03T03:10:03.977Z,5.91
2023-07-03T03:11:04.097Z,6.58
2023-07-03T03:12:04.095Z,5.58
2023-07-03T03:13:04.143Z,6.22
2023-07-03T03:14:04.219Z,7.05
2023-07-03T03:15:04.273Z,5.86
2023-07-03T03:16:04.321Z,6.37
2023-07-03T03:17:04.383Z,6.84
2023-07-03T03:18:04.523Z,6.25
2023-07-03T03:19:04.482Z,6.46
2023-07-03T03:20:04.520Z,6.04
2023-07-03T03:21:04.530Z,6.91
2023-07-03T03:22:04.517Z,6.58
2023-07-03T03:23:04.557Z,6.13
2023-07-03T03:24:04.559Z,6.84
2023-07-03T03:25:04.584Z,5.90
2023-07-03T03:26:04.597Z,6.43
2023-07-03T03:27:04.625Z,6.26
2023-07-03T03:28:04.688Z,6.34
2023-07-03T03:29:04.702Z,6.33
2023-07-03T03:30:04.739Z,6.20
2023-07-03T03:31:04.807Z,5.68
2023-07-03T03:32:04.759Z,6.77
2023-07-03T03:33:04.768Z,5.68
2023-07-03T03:34:04.859Z,6.19
2023-07-03T03:35:05.007Z,6.23
2023-07-03T03:36:04.918Z,5.50
2023-07-03T03:37:04.959Z,5.98
2023-07-03T03:38:05.001Z,6.00
2023-07-03T03:39:04.990Z,6.13
2023-07-03T03:40:04.991Z,5.71
2023-07-03T03:41:05.024Z,6.29
2023-07-03T03:42:05.034Z,6.46
2023-07-03T03:43:05.030Z,5.45
2023-07-03T03:44:05.034Z,5.99
2023-07-03T03:45:05.055Z,5.08
2023-07-03T03:46:05.053Z,5.19
2023-07-03T03:47:05.050Z,6.25
2023-07-03T03:48:05.216Z,6.12
2023-07-03T03:49:05.048Z,6.27
2023-07-03T03:50:05.078Z,6.58
2023-07-03T03:51:05.073Z,6.42
2023-07-03T03:52:05.100Z,6.35
2023-07-03T03:53:05.150Z,6.26
2023-07-03T03:54:05.153Z,5.81
2023-07-03T03:55:05.160Z,5.81
2023-07-03T03:56:05.193Z,5.91
2023-07-03T03:57:05.281Z,5.83
2023-07-03T03:58:05.256Z,5.54
2023-07-03T03:59:05.271Z,5.60
2023-07-03T04:00:05.262Z,6.16
2023-07-03T04:01:05.277Z,5.48
2023-07-03T04:02:05.302Z,6.21
2023-07-03T04:03:05.297Z,5.74
2023-07-03T04:04:05.284Z,5.72
2023-07-03T04:05:05.301Z,6.59
2023-07-03T04:06:05.302Z,5.61
2023-07-03T04:07:05.304Z,5.51
2023-07-03T04:08:05.358Z,6.47
2023-07-03T04:09:05.313Z,6.02
2023-07-03T04:10:05.302Z,5.95
2023-07-03T04:11:05.334Z,6.03
2023-07-03T04:12:05.317Z,6.39
2023-07-03T04:13:05.368Z,6.70
2023-07-03T04:14:05.368Z,6.92
2023-07-03T04:15:05.382Z,6.59
2023-07-03T04:16:05.371Z,6.71
2023-07-03T04:17:05.346Z,6.46
2023-07-03T04:18:05.354Z,6.65
2023-07-03T04:19:05.353Z,6.72
2023-07-03T04:20:05.372Z,7.02
2023-07-03T04:21:05.338Z,6.90
2023-07-03T04:22:05.351Z,7.25
2023-07-03T04:23:05.347Z,6.78
2023-07-03T04:24:05.396Z,6.75
2023-07-03T04:25:05.339Z,7.03
2023-07-03T04:26:05.351Z,6.29
2023-07-03T04:27:05.363Z,6.13
2023-07-03T04:28:05.355Z,5.72
2023-07-03T04:29:05.356Z,6.19
2023-07-03T04:30:05.353Z,6.28
2023-07-03T04:31:05.387Z,5.74
2023-07-03T04:32:05.404Z,5.80
2023-07-03T04:33:05.418Z,6.19
2023-07-03T04:34:05.394Z,6.33
2023-07-03T04:35:05.430Z,6.68
2023-07-03T04:36:05.410Z,5.56
2023-07-03T04:37:05.513Z,6.48
2023-07-03T04:38:05.436Z,5.83
2023-07-03T04:39:05.421Z,5.75
2023-07-03T04:40:05.474Z,5.79
2023-07-03T04:41:05.448Z,6.82
2023-07-03T04:42:05.456Z,6.34
2023-07-03T04:43:05.446Z,5.77
2023-07-03T04:44:05.454Z,6.83
2023-07-03T04:45:05.462Z,6.38
2023-07-03T04:46:05.499Z,6.00
2023-07-03T04:47:05.457Z,6.38
2023-07-03T04:48:05.473Z,5.87
2023-07-03T04:49:05.428Z,5.77
2023-07-03T04:50:05.457Z,6.39
2023-07-03T04:51:05.474Z,6.31
2023-07-03T04:52:05.500Z,5.82
2023-07-03T04:53:05.482Z,5.60
2023-07-03T04:54:05.470Z,6.15
2023-07-03T04:55:05.517Z,5.57
2023-07-03T04:56:05.496Z,6.14
2023-07-03T04:57:05.540Z,5.96
2023-07-03T04:58:05.488Z,5.32
2023-07-03T04:59:05.507Z,5.65
2023-07-03T05:00:05.537Z,6.60
2023-07-03T05:02:24.947Z,7.25
2023-07-03T05:03:24.957Z,6.54
2023-07-03T05:04:24.848Z,6.88
2023-07-03T05:05:24.777Z,6.87
2023-07-03T05:06:24.877Z,6.48
2023-07-03T05:07:24.768Z,7.17
2023-07-03T05:08:24.750Z,6.31
2023-07-03T05:09:24.774Z,7.80
2023-07-03T05:10:24.774Z,6.73
2023-07-03T05:11:24.767Z,7.02
2023-07-03T05:12:24.771Z,6.90
2023-07-03T05:13:24.742Z,7.34
2023-07-03T05:14:24.758Z,7.29
2023-07-03T05:15:24.733Z,6.31
2023-07-03T05:16:24.868Z,6.93
2023-07-03T05:17:24.742Z,6.70
2023-07-03T05:18:24.664Z,7.01
2023-07-03T05:19:24.700Z,6.69
2023-07-03T05:20:24.684Z,7.83
2023-07-03T05:21:24.789Z,7.46
2023-07-03T05:22:24.685Z,6.94
2023-07-03T05:23:24.633Z,7.36
2023-07-03T05:24:24.692Z,7.05
2023-07-03T05:25:24.717Z,7.11
2023-07-03T05:26:24.850Z,7.39
2023-07-03T05:27:24.738Z,6.60
2023-07-03T05:28:24.733Z,6.05
2023-07-03T05:29:24.765Z,6.48
2023-07-03T05:30:24.760Z,7.34
2023-07-03T05:31:25.019Z,6.78
2023-07-03T05:32:24.980Z,7.30
2023-07-03T05:33:24.963Z,7.45
2023-07-03T05:34:24.990Z,7.37
2023-07-03T05:35:24.979Z,6.75
2023-07-03T05:36:25.492Z,6.61
2023-07-03T05:37:25.101Z,6.74
2023-07-03T05:38:25.300Z,7.28
2023-07-03T05:39:25.245Z,7.08
2023-07-03T05:40:25.340Z,8.18
2023-07-03T05:41:25.939Z,7.89
2023-07-03T05:42:27.612Z,7.86
2023-07-03T05:43:25.450Z,6.78
2023-07-03T05:44:25.696Z,8.06
2023-07-03T05:46:52.871Z,6.54
2023-07-03T05:47:45.297Z,7.10
2023-07-03T05:48:45.290Z,7.57
2023-07-03T05:49:45.324Z,7.55
2023-07-03T05:50:45.552Z,7.23
2023-07-03T05:51:45.151Z,7.20
2023-07-03T05:52:45.151Z,7.45
2023-07-03T05:53:45.129Z,8.25
2023-07-03T05:54:45.154Z,7.52
2023-07-03T05:55:45.121Z,8.36
2023-07-03T05:56:45.434Z,8.48
2023-07-03T05:57:45.122Z,8.11
2023-07-03T05:58:45.245Z,8.02
2023-07-03T05:59:45.109Z,7.42
2023-07-03T06:00:45.161Z,7.71
2023-07-03T06:01:46.697Z,7.51
2023-07-03T06:02:45.071Z,7.15
2023-07-03T06:03:45.186Z,8.35
2023-07-03T06:04:45.212Z,8.21
2023-07-03T06:05:45.239Z,8.07
2023-07-03T06:06:45.447Z,7.93
2023-07-03T06:07:45.350Z,8.12
2023-07-03T06:08:45.364Z,8.63
2023-07-03T06:09:45.357Z,6.70
2023-07-03T06:10:45.461Z,8.13
2023-07-03T06:11:45.417Z,7.89
2023-07-03T06:12:45.452Z,7.80
2023-07-03T06:13:46.416Z,7.34
2023-07-03T06:14:45.448Z,8.19
2023-07-03T06:15:45.540Z,7.34
2023-07-03T06:16:45.971Z,8.27
2023-07-03T06:17:45.702Z,8.52
2023-07-03T06:18:46.486Z,9.07
2023-07-03T06:19:45.643Z,7.85
2023-07-03T06:20:45.600Z,7.17
2023-07-03T06:21:45.923Z,7.40
2023-07-03T06:22:45.666Z,7.02
2023-07-03T06:23:45.743Z,7.76
2023-07-03T06:24:45.715Z,8.19
2023-07-03T06:25:45.729Z,8.16
2023-07-03T06:26:45.948Z,7.31
2023-07-03T06:27:45.799Z,7.58
2023-07-03T06:28:45.803Z,7.75
2023-07-03T06:29:45.861Z,7.64
2023-07-03T06:30:46.750Z,7.31
2023-07-03T06:31:45.952Z,7.55
2023-07-03T06:32:45.964Z,8.88
2023-07-03T06:33:45.922Z,8.04
2023-07-03T06:34:45.876Z,7.37
2023-07-03T06:35:46.077Z,7.90
2023-07-03T06:36:46.451Z,7.98
2023-07-03T06:37:46.085Z,7.45
2023-07-03T06:38:46.011Z,8.45
2023-07-03T06:39:46.085Z,7.88
2023-07-03T06:40:46.173Z,7.21
2023-07-03T06:41:46.462Z,7.67
2023-07-03T06:42:46.062Z,8.46
2023-07-03T06:43:46.084Z,7.83
2023-07-03T06:44:46.135Z,7.65
2023-07-03T06:45:46.117Z,8.71
2023-07-03T06:46:46.163Z,8.80
2023-07-03T06:47:46.147Z,8.79
2023-07-03T06:48:46.174Z,8.56
2023-07-03T06:49:46.142Z,8.59
2023-07-03T06:50:46.101Z,7.52
2023-07-03T06:51:46.413Z,8.91
2023-07-03T06:52:46.258Z,8.86
2023-07-03T06:53:47.316Z,8.60
2023-07-03T06:54:46.343Z,9.41
2023-07-03T06:55:46.398Z,8.72
2023-07-03T06:56:47.081Z,9.57
2023-07-03T06:57:46.510Z,9.13
2023-07-03T06:58:46.566Z,8.67
2023-07-03T06:59:46.629Z,9.55
2023-07-03T07:00:46.669Z,8.34
2023-07-03T07:01:46.994Z,10.17
2023-07-03T07:02:46.786Z,9.83
2023-07-03T07:03:47.500Z,9.76
2023-07-03T07:04:47.050Z,8.73
2023-07-03T07:05:47.088Z,10.28
2023-07-03T07:06:48.052Z,10.44
2023-07-03T07:07:47.303Z,8.85
2023-07-03T07:08:47.071Z,10.36
2023-07-03T07:09:47.233Z,9.63
2023-07-03T07:10:47.223Z,10.36
2023-07-03T07:11:49.139Z,9.63
2023-07-03T07:12:49.068Z,9.98
2023-07-03T07:13:47.206Z,10.26
2023-07-03T07:14:48.267Z,10.38
2023-07-03T07:15:47.122Z,11.13
2023-07-03T07:16:47.513Z,10.30
2023-07-03T07:17:52.317Z,8.60
2023-07-03T07:18:48.214Z,10.61
2023-07-03T07:19:47.123Z,9.93
2023-07-03T07:20:47.138Z,9.10
2023-07-03T07:21:49.024Z,9.90
2023-07-03T07:22:47.149Z,9.11
2023-07-03T07:23:47.184Z,9.84
2023-07-03T07:24:48.223Z,9.79
2023-07-03T07:25:47.194Z,9.72
2023-07-03T07:26:47.483Z,9.86
2023-07-03T07:27:47.092Z,9.73
2023-07-03T07:28:47.085Z,9.66
2023-07-03T07:29:47.071Z,10.32
2023-07-03T07:30:47.072Z,10.26
2023-07-03T07:31:47.472Z,9.51
2023-07-03T07:32:47.081Z,9.12
2023-07-03T07:33:47.022Z,9.90
2023-07-03T07:34:47.027Z,10.01
2023-07-03T07:35:47.099Z,10.10
2023-07-03T07:36:47.447Z,9.22
2023-07-03T07:37:47.255Z,10.25
2023-07-03T07:38:47.322Z,9.16
2023-07-03T07:39:47.359Z,11.06
2023-07-03T07:40:47.361Z,10.53
2023-07-03T07:41:47.642Z,11.13
2023-07-03T07:42:47.445Z,10.11
2023-07-03T07:43:47.598Z,10.09
2023-07-03T07:44:47.591Z,10.64
2023-07-03T07:45:48.306Z,10.56
2023-07-03T07:46:48.269Z,8.92
2023-07-03T07:47:47.751Z,9.77
2023-07-03T07:48:47.702Z,9.51
2023-07-03T07:49:48.482Z,10.51
2023-07-03T07:50:47.750Z,9.47
2023-07-03T07:51:47.874Z,10.19
2023-07-03T07:52:48.109Z,10.72
2023-07-03T07:53:47.821Z,10.45
2023-07-03T07:54:47.770Z,9.55
2023-07-03T07:55:47.851Z,10.81
2023-07-03T07:56:47.771Z,9.49
2023-07-03T07:57:47.869Z,9.86
2023-07-03T07:58:47.812Z,10.48
2023-07-03T07:59:48.165Z,10.04
2023-07-03T08:00:47.755Z,9.48
2023-07-03T08:01:47.887Z,9.81
2023-07-03T08:02:47.939Z,10.73
2023-07-03T08:03:47.975Z,9.58
2023-07-03T08:04:47.907Z,11.13
2023-07-03T08:05:48.041Z,9.92
2023-07-03T08:06:47.960Z,9.81
2023-07-03T08:07:48.464Z,10.79
2023-07-03T08:08:47.961Z,10.83
2023-07-03T08:09:48.030Z,9.17
2023-07-03T08:10:48.040Z,9.99
2023-07-03T08:11:48.036Z,10.22
2023-07-03T08:12:48.434Z,10.01
2023-07-03T08:13:48.662Z,10.24
2023-07-03T08:14:48.156Z,9.78
2023-07-03T08:15:48.227Z,10.04
2023-07-03T08:16:48.388Z,9.46
2023-07-03T08:17:48.570Z,10.01
2023-07-03T08:18:50.078Z,10.36
2023-07-03T08:19:48.274Z,10.17
2023-07-03T08:20:48.291Z,10.71
2023-07-03T08:21:48.276Z,9.84
2023-07-03T08:22:48.467Z,10.68
2023-07-03T08:23:48.340Z,9.95
2023-07-03T08:24:48.370Z,10.06
2023-07-03T08:25:48.637Z,10.80
2023-07-03T08:26:48.457Z,9.98
2023-07-03T08:27:48.483Z,9.71
2023-07-03T08:28:48.498Z,10.71
2023-07-03T08:29:48.521Z,12.08
2023-07-03T08:30:48.642Z,10.28
2023-07-03T08:31:48.672Z,10.71
2023-07-03T08:32:49.016Z,11.49
2023-07-03T08:33:48.726Z,11.17
2023-07-03T08:37:49.084Z,9.66
2023-07-03T08:38:48.784Z,10.69
2023-07-03T08:39:48.804Z,10.99
2023-07-03T08:40:48.909Z,10.39
2023-07-03T08:41:48.721Z,10.11
2023-07-03T08:42:48.959Z,10.41
2023-07-03T08:43:48.706Z,10.16
2023-07-03T08:44:48.719Z,10.01
2023-07-03T08:45:48.743Z,10.03
2023-07-03T08:47:01.941Z,10.36
2023-07-03T08:47:49.693Z,9.41
2023-07-03T08:48:48.667Z,9.15
2023-07-03T08:49:48.640Z,10.33
2023-07-03T08:50:48.614Z,10.05
2023-07-03T08:51:48.622Z,11.09
2023-07-03T08:52:49.050Z,10.78
2023-07-03T08:53:48.629Z,10.84
2023-07-03T08:54:48.685Z,10.50
2023-07-03T08:55:48.661Z,10.50
2023-07-03T08:56:48.609Z,10.85
2023-07-03T08:57:49.955Z,9.81
2023-07-03T08:58:48.642Z,11.29
2023-07-03T08:59:48.673Z,10.04
2023-07-03T09:00:48.936Z,10.76
2023-07-03T09:01:48.858Z,9.89
2023-07-03T09:02:48.872Z,10.56
2023-07-03T09:03:48.898Z,10.16
2023-07-03T09:04:49.244Z,9.69
2023-07-03T09:05:49.199Z,10.12
2023-07-03T09:06:48.929Z,11.66
2023-07-03T09:07:49.001Z,10.55
2023-07-03T09:08:49.036Z,10.89
2023-07-03T09:09:49.063Z,11.07
2023-07-03T09:10:49.120Z,11.09
2023-07-03T09:11:49.540Z,10.09
2023-07-03T09:12:49.172Z,10.48
2023-07-03T09:13:49.207Z,9.76
2023-07-03T09:14:49.240Z,9.92
2023-07-03T09:15:49.532Z,10.68
2023-07-03T09:16:49.438Z,11.04
2023-07-03T09:17:49.593Z,10.66
2023-07-03T09:18:49.270Z,10.63
2023-07-03T09:19:49.313Z,10.41
2023-07-03T09:20:49.604Z,11.25
2023-07-03T09:21:49.401Z,10.21
2023-07-03T09:22:49.512Z,10.91
2023-07-03T09:23:49.484Z,10.40
2023-07-03T09:24:50.402Z,10.42
2023-07-03T09:25:50.004Z,10.87
2023-07-03T09:26:49.727Z,10.18
2023-07-03T09:27:50.042Z,11.24
2023-07-03T09:28:49.618Z,11.03
2023-07-03T09:29:50.024Z,10.32
2023-07-03T09:30:50.187Z,10.81
2023-07-03T09:32:50.232Z,10.33
2023-07-03T09:33:49.873Z,10.35
2023-07-03T09:34:49.845Z,9.85
2023-07-03T09:35:50.072Z,10.85
2023-07-03T09:36:49.901Z,11.97
2023-07-03T09:37:50.021Z,10.40
2023-07-03T09:38:50.021Z,11.05
2023-07-03T09:39:50.071Z,11.35
2023-07-03T09:40:50.146Z,10.27
2023-07-03T09:41:50.125Z,10.80
2023-07-03T09:42:50.526Z,9.91
2023-07-03T09:43:50.156Z,10.01
2023-07-03T09:44:50.221Z,10.73
2023-07-03T09:45:50.356Z,10.86
2023-07-03T09:46:50.318Z,11.18
2023-07-03T09:47:50.655Z,11.10
2023-07-03T09:48:50.392Z,10.90
2023-07-03T09:49:50.551Z,11.61
2023-07-03T09:51:05.698Z,11.60
2023-07-03T09:51:51.492Z,11.10
2023-07-03T09:53:03.549Z,9.37
2023-07-03T09:53:51.395Z,10.51
2023-07-03T09:54:50.390Z,12.30
2023-07-03T09:55:50.521Z,11.60
2023-07-03T09:56:50.389Z,11.39
2023-07-03T09:57:50.487Z,11.22
2023-07-03T09:58:50.345Z,11.06
2023-07-03T09:59:50.364Z,10.93
2023-07-03T10:00:50.557Z,10.33
2023-07-03T10:03:50.539Z,11.74
2023-07-03T10:06:50.340Z,9.72
2023-07-03T10:07:51.192Z,11.85
2023-07-03T10:08:50.447Z,11.65
2023-07-03T10:11:50.385Z,11.35
2023-07-03T10:12:50.517Z,10.49
2023-07-03T10:13:50.250Z,9.72
2023-07-03T10:14:50.263Z,10.64
2023-07-03T10:15:50.367Z,10.20
2023-07-03T10:16:50.357Z,10.28
2023-07-03T10:17:50.374Z,10.47
2023-07-03T10:18:50.252Z,10.22
2023-07-03T10:19:50.203Z,10.33
2023-07-03T10:20:50.288Z,10.81
2023-07-03T10:21:50.343Z,11.01
2023-07-03T10:22:50.224Z,10.77
2023-07-03T10:23:50.221Z,10.73
2023-07-03T10:24:50.228Z,10.38
2023-07-03T10:25:50.519Z,10.30
2023-07-03T10:26:50.185Z,9.75
2023-07-03T10:27:50.145Z,10.44
2023-07-03T10:28:50.500Z,11.85
2023-07-03T10:29:51.141Z,10.77
2023-07-03T10:30:50.161Z,10.28
2023-07-03T10:31:50.220Z,10.83
2023-07-03T10:32:50.150Z,10.82
2023-07-03T10:33:50.486Z,10.45
2023-07-03T10:34:50.137Z,10.51
2023-07-03T10:35:50.612Z,10.43
2023-07-03T10:36:50.122Z,10.82
2023-07-03T10:37:50.167Z,10.36
2023-07-03T10:38:50.536Z,10.91
2023-07-03T10:39:50.127Z,9.67
2023-07-03T10:40:50.396Z,11.07
2023-07-03T10:41:50.128Z,9.83
2023-07-03T10:42:50.084Z,10.50
2023-07-03T10:43:50.062Z,9.93
2023-07-03T10:44:50.058Z,9.93
2023-07-03T10:45:50.508Z,10.68
2023-07-03T10:46:50.095Z,10.47
2023-07-03T10:47:50.051Z,10.98
2023-07-03T10:48:50.025Z,10.13
2023-07-03T10:49:49.981Z,10.49
2023-07-03T10:50:50.239Z,10.59
2023-07-03T10:51:50.021Z,11.01
2023-07-03T10:52:50.059Z,10.78
2023-07-03T10:53:50.057Z,10.70
2023-07-03T10:54:50.065Z,9.78
2023-07-03T10:55:50.273Z,9.89
2023-07-03T10:56:49.991Z,11.50
2023-07-03T10:57:49.942Z,10.51
2023-07-03T10:58:50.540Z,9.84
2023-07-03T10:59:49.959Z,9.13
2023-07-03T11:00:49.955Z,9.82
2023-07-03T11:01:50.129Z,11.77
2023-07-03T11:02:50.006Z,10.69
2023-07-03T11:04:01.066Z,10.58
2023-07-03T11:04:51.068Z,10.05
2023-07-03T11:05:50.305Z,10.51
2023-07-03T11:06:50.003Z,10.12
2023-07-03T11:07:50.007Z,10.63
2023-07-03T11:08:49.964Z,10.33
2023-07-03T11:09:50.027Z,10.31
2023-07-03T11:10:49.982Z,11.17
2023-07-03T11:11:49.971Z,10.47
2023-07-03T11:12:49.953Z,10.15
2023-07-03T11:13:50.008Z,9.29
2023-07-03T11:14:49.944Z,10.04
2023-07-03T11:15:50.184Z,10.71
2023-07-03T11:16:50.040Z,10.32
2023-07-03T11:19:49.993Z,10.54
2023-07-03T11:22:49.910Z,9.54
2023-07-03T11:23:50.006Z,10.35
2023-07-03T11:24:49.925Z,10.09
2023-07-03T11:28:49.907Z,9.62
2023-07-03T11:29:49.894Z,9.89
2023-07-03T11:30:50.263Z,9.89
2023-07-03T11:31:50.908Z,9.86
2023-07-03T11:32:49.853Z,10.01
2023-07-03T11:36:51.865Z,9.75
2023-07-03T11:39:49.860Z,9.09
2023-07-03T11:40:50.055Z,9.32
2023-07-03T11:43:49.783Z,9.89
2023-07-03T11:44:49.847Z,9.86
2023-07-03T11:45:50.091Z,9.39
2023-07-03T11:46:49.797Z,9.51
2023-07-03T11:47:49.767Z,9.24
2023-07-03T11:48:49.814Z,9.97
2023-07-03T11:49:49.748Z,9.95
2023-07-03T11:50:49.746Z,9.79
2023-07-03T11:51:49.733Z,9.08
2023-07-03T11:52:49.708Z,9.80
2023-07-03T11:53:49.769Z,10.20
2023-07-03T11:54:49.717Z,8.98
2023-07-03T11:55:50.017Z,8.70
2023-07-03T11:56:49.680Z,9.16
2023-07-03T11:57:53.040Z,8.87
2023-07-03T11:58:50.728Z,9.38
2023-07-03T11:59:49.650Z,10.06
2023-07-03T12:00:49.696Z,9.30
2023-07-03T12:01:49.668Z,10.10
2023-07-03T12:02:49.720Z,9.99
2023-07-03T12:03:49.708Z,9.10
2023-07-03T12:04:50.345Z,9.70
2023-07-03T12:05:49.914Z,9.87
2023-07-03T12:06:49.616Z,8.99
2023-07-03T12:07:49.636Z,9.23
2023-07-03T12:08:49.633Z,10.07
2023-07-03T12:09:49.618Z,8.95
2023-07-03T12:10:49.588Z,9.02
2023-07-03T12:11:49.662Z,10.22
2023-07-03T12:12:49.641Z,9.47
2023-07-03T12:13:49.854Z,9.87
2023-07-03T12:14:49.768Z,9.19
2023-07-03T12:15:49.952Z,9.76
2023-07-03T12:16:49.854Z,9.79
2023-07-03T12:17:49.884Z,9.64
2023-07-03T12:18:49.925Z,9.66
2023-07-03T12:19:49.901Z,9.42
2023-07-03T12:20:49.909Z,9.03
2023-07-03T12:21:49.906Z,8.93
2023-07-03T12:22:49.920Z,9.33
2023-07-03T12:23:49.915Z,9.18
2023-07-03T12:24:49.933Z,8.74
2023-07-03T12:25:50.287Z,8.05
2023-07-03T12:26:50.058Z,9.79
2023-07-03T12:27:50.109Z,8.92
2023-07-03T12:28:50.099Z,8.37
2023-07-03T12:29:50.164Z,8.85
2023-07-03T12:30:50.191Z,9.23
2023-07-03T12:31:50.177Z,8.43
2023-07-03T12:32:50.233Z,9.22
2023-07-03T12:33:50.294Z,9.74
2023-07-03T12:34:50.331Z,8.74
2023-07-03T12:35:50.541Z,8.76
2023-07-03T12:36:54.222Z,8.14
2023-07-03T12:37:51.453Z,9.92
2023-07-03T12:38:50.430Z,9.74
2023-07-03T12:39:50.369Z,9.37
2023-07-03T12:40:50.450Z,9.05
2023-07-03T12:41:50.351Z,8.33
2023-07-03T12:42:50.409Z,9.24
2023-07-03T12:44:03.465Z,8.34
2023-07-03T12:44:51.386Z,9.64
2023-07-03T12:45:50.608Z,9.88
2023-07-03T12:46:50.340Z,8.94
2023-07-03T12:47:50.377Z,9.39
2023-07-03T12:48:50.335Z,8.46
2023-07-03T12:49:50.371Z,9.89
2023-07-03T12:50:50.763Z,8.73
2023-07-03T12:51:50.314Z,10.34
2023-07-03T12:52:50.310Z,9.80
2023-07-03T12:53:50.333Z,9.70
2023-07-03T12:54:53.465Z,9.33
2023-07-03T12:55:51.436Z,10.10
2023-07-03T12:56:50.284Z,9.26
2023-07-03T12:57:50.261Z,9.64
2023-07-03T12:58:50.266Z,8.81
2023-07-03T12:59:50.268Z,9.02
2023-07-03T13:00:50.315Z,9.62
2023-07-03T13:01:50.223Z,8.94
2023-07-03T13:02:50.241Z,9.69
2023-07-03T13:03:50.228Z,8.44
2023-07-03T13:04:50.290Z,9.53
2023-07-03T13:05:50.656Z,10.08
2023-07-03T13:06:50.217Z,9.71
2023-07-03T13:07:50.197Z,9.98
2023-07-03T13:08:50.233Z,8.75
2023-07-03T13:09:50.367Z,9.40
2023-07-03T13:10:50.234Z,9.46
2023-07-03T13:11:50.241Z,8.85
2023-07-03T13:12:50.296Z,9.86
2023-07-03T13:13:50.380Z,8.71
2023-07-03T13:14:50.411Z,9.73
2023-07-03T13:15:50.694Z,8.98
2023-07-03T13:16:50.533Z,8.77
2023-07-03T13:17:50.561Z,8.78
2023-07-03T13:18:50.606Z,8.62
2023-07-03T13:19:50.601Z,9.35
2023-07-03T13:20:50.600Z,9.21
2023-07-03T13:21:50.645Z,9.65
2023-07-03T13:22:50.714Z,9.21
2023-07-03T13:23:50.722Z,8.89
2023-07-03T13:24:50.791Z,8.97
2023-07-03T13:25:51.132Z,8.82
2023-07-03T13:26:50.858Z,9.59
2023-07-03T13:27:50.891Z,8.54
2023-07-03T13:28:50.963Z,9.27
2023-07-03T13:29:50.986Z,9.03
2023-07-03T13:30:51.058Z,9.86
2023-07-03T13:31:52.923Z,10.37
2023-07-03T13:32:51.074Z,9.61
2023-07-03T13:33:51.155Z,9.90
2023-07-03T13:34:51.118Z,10.23
2023-07-03T13:35:51.243Z,8.96
2023-07-03T13:36:51.207Z,8.91
2023-07-03T13:37:51.240Z,9.22
2023-07-03T13:38:51.310Z,10.28